Time;durP1;ratioP1;P1;durP2;ratioP2;P2;SDS_P1;SDS_P2;PMS_P1;PMS_P2;Temp;Humidity;BMP_temperature;BMP_pressure;BME280_temperature;BME280_humidity;BME280_pressure;Samples;Min_cycle;Max_cycle;Signal;HPM_P1;HPM_P2
2022/02/04 00:27:47;;;;;;;;;16.00;12.00;;;;;9.58;79.30;101495.81;5054145;28;45427;-68
2022/02/04 00:30:25;;;;;;;;;16.75;14.75;;;;;9.56;79.48;101487.13;5054747;28;45474;-68
2022/02/04 00:32:52;;;;;;;;;12.75;10.50;;;;;9.50;79.39;101486.41;5050495;28;45534;-68
2022/02/04 00:40:59;;;;;;;;;16.00;12.00;;;;;9.53;79.68;101489.81;5026556;28;45541;-68
2022/02/04 00:43:24;;;;;;;;;12.00;10.75;;;;;9.51;79.75;101470.66;5013671;28;45806;-68
2022/02/04 00:45:57;;;;;;;;;15.75;11.00;;;;;9.49;79.91;101479.44;5011889;28;47677;-68
2022/02/04 00:51:04;;;;;;;;;13.75;11.75;;;;;9.44;79.84;101474.31;5012426;28;47789;-68
2022/02/04 01:28:27;;;;;;;;;18.25;13.00;;;;;9.32;80.44;101483.38;5055660;28;45310;-68
2022/02/04 01:30:54;;;;;;;;;12.00;8.00;;;;;9.31;81.02;101488.69;5052308;28;45787;-68
2022/02/04 01:33:20;;;;;;;;;12.75;11.50;;;;;9.27;81.07;101487.03;5052993;28;45515;-68
2022/02/04 01:35:45;;;;;;;;;15.25;11.75;;;;;9.24;80.78;101484.47;5052657;28;45407;-68
2022/02/04 01:38:11;;;;;;;;;17.50;13.50;;;;;9.23;80.83;101488.00;5053278;28;45555;-68
2022/02/04 01:40:36;;;;;;;;;16.50;15.50;;;;;9.21;81.54;101485.41;5054092;28;45533;-68
2022/02/04 01:43:02;;;;;;;;;11.00;10.25;;;;;9.12;81.56;101469.91;5054745;28;45397;-68
2022/02/04 01:45:27;;;;;;;;;18.25;14.25;;;;;9.19;81.62;101471.50;5053326;28;45408;-68
2022/02/04 01:47:56;;;;;;;;;16.25;14.00;;;;;9.19;81.31;101478.47;5053225;28;46722;-68
2022/02/04 01:50:27;;;;;;;;;13.25;11.75;;;;;9.21;81.28;101479.31;5052997;28;45883;-68
2022/02/04 01:52:54;;;;;;;;;20.25;16.00;;;;;9.19;81.39;101476.75;5052476;28;45589;-68
2022/02/04 01:55:22;;;;;;;;;17.00;14.25;;;;;9.19;81.68;101479.38;5054055;28;45376;-68
2022/02/04 01:57:48;;;;;;;;;14.25;13.50;;;;;9.20;81.35;101480.22;5051897;28;47998;-68
2022/02/04 02:00:14;;;;;;;;;11.25;10.00;;;;;9.22;81.23;101481.03;5052952;28;45468;-68
2022/02/04 02:02:39;;;;;;;;;11.75;11.75;;;;;9.20;81.59;101475.84;5052275;28;45493;-68
2022/02/04 02:05:05;;;;;;;;;15.75;11.75;;;;;9.23;81.47;101483.59;5052668;28;45521;-68
2022/02/04 02:07:32;;;;;;;;;11.75;10.75;;;;;9.24;81.58;101476.59;5053780;28;46686;-68
2022/02/04 02:10:03;;;;;;;;;13.75;11.00;;;;;9.19;81.54;101467.97;5049910;28;45907;-68
2022/02/04 02:12:35;;;;;;;;;18.00;13.50;;;;;9.23;81.71;101474.88;5052832;28;45665;-68
2022/02/04 02:15:18;;;;;;;;;17.00;12.00;;;;;9.26;81.67;101477.44;5052313;28;45642;-68
2022/02/04 02:42:13;;;;;;;;;15.00;8.00;;;;;9.34;81.55;101437.00;5050850;28;45488;-68
2022/02/04 02:44:46;;;;;;;;;21.75;17.50;;;;;9.28;81.70;101436.28;5056074;28;45365;-68
2022/02/04 02:55:16;;;;;;;;;18.25;12.50;;;;;9.18;83.42;101440.91;5056579;28;45394;-68
2022/02/04 03:02:34;;;;;;;;;15.50;14.25;;;;;9.08;83.04;101432.44;5055368;28;45458;-68
2022/02/04 03:04:59;;;;;;;;;18.50;13.75;;;;;9.10;83.08;101441.13;5056516;28;45595;-68
2022/02/04 03:07:24;;;;;;;;;17.50;12.00;;;;;9.13;83.18;101435.81;5057359;28;45458;-68
2022/02/04 03:09:50;;;;;;;;;17.25;9.00;;;;;9.10;82.96;101420.13;5055557;28;46427;-68
2022/02/04 03:12:15;;;;;;;;;12.33;9.33;;;;;9.17;82.97;101435.72;5055209;28;55359;-68
2022/02/04 03:14:40;;;;;;;;;11.00;10.00;;;;;9.12;82.81;101426.19;5051830;28;45435;-68
2022/02/04 03:17:10;;;;;;;;;14.75;9.25;;;;;9.13;83.00;101433.19;5056044;28;45536;-68
2022/02/04 03:19:35;;;;;;;;;17.25;9.00;;;;;9.11;82.88;101431.47;5056852;28;46495;-68
2022/02/04 03:22:06;;;;;;;;;13.50;10.00;;;;;9.09;83.07;101422.81;5055424;28;45442;-69
2022/02/04 03:24:32;;;;;;;;;9.25;6.00;;;;;9.08;82.88;101424.56;5056204;28;45565;-68
2022/02/04 03:27:02;;;;;;;;;14.00;11.00;;;;;9.09;83.15;101422.81;5055550;28;45374;-68
2022/02/04 03:29:33;;;;;;;;;11.25;8.00;;;;;9.06;83.84;101415.00;5053435;28;45464;-68
2022/02/04 03:32:05;;;;;;;;;11.00;10.50;;;;;9.05;83.77;101414.16;5055343;28;45967;-68
2022/02/04 03:34:30;;;;;;;;;12.50;6.50;;;;;9.02;84.23;101411.59;5053222;28;45446;-68
2022/02/04 03:36:56;;;;;;;;;15.00;9.25;;;;;9.00;83.90;101410.78;5053911;28;45419;-68
2022/02/04 03:39:21;;;;;;;;;10.75;9.00;;;;;8.97;83.84;101413.47;5053881;28;48362;-68
2022/02/04 03:41:47;;;;;;;;;17.25;12.25;;;;;8.89;84.29;101416.31;5053682;28;45539;-68
2022/02/04 03:44:12;;;;;;;;;17.00;12.00;;;;;8.84;84.07;101412.94;5055425;28;45393;-68
2022/02/04 03:46:37;;;;;;;;;14.25;12.75;;;;;8.85;84.37;101417.28;5050672;28;45902;-68
2022/02/04 03:49:03;;;;;;;;;15.75;9.75;;;;;8.82;84.32;101414.75;5056248;28;45688;-68
2022/02/04 03:51:28;;;;;;;;;19.50;14.25;;;;;8.85;84.50;101414.66;5052787;28;45500;-68
2022/02/04 03:53:53;;;;;;;;;19.25;14.50;;;;;8.81;84.42;101412.13;5054705;28;45478;-68
2022/02/04 03:56:19;;;;;;;;;19.25;13.75;;;;;8.81;84.48;101418.25;5054925;28;45407;-68
2022/02/04 03:58:44;;;;;;;;;13.75;12.25;;;;;8.81;84.45;101412.13;5055025;28;46638;-68
2022/02/04 04:01:10;;;;;;;;;16.00;12.25;;;;;8.83;84.74;101408.59;5055968;28;45475;-68
2022/02/04 04:03:36;;;;;;;;;15.75;12.00;;;;;8.85;84.70;101405.94;5052895;28;45436;-68
2022/02/04 04:06:02;;;;;;;;;11.00;9.75;;;;;8.85;84.52;101419.03;5054063;28;45656;-68
2022/02/04 04:08:27;;;;;;;;;22.75;14.25;;;;;8.86;84.49;101415.50;5054392;28;45375;-68
2022/02/04 04:10:53;;;;;;;;;19.00;13.75;;;;;8.87;84.73;101407.63;5054559;28;45427;-68
2022/02/04 04:13:19;;;;;;;;;15.25;12.50;;;;;8.91;84.59;101405.78;5057122;28;45448;-68
2022/02/04 04:15:45;;;;;;;;;13.00;10.25;;;;;8.89;84.16;101418.06;5053930;28;45336;-68
2022/02/04 04:18:13;;;;;;;;;15.25;12.00;;;;;8.87;84.56;101411.97;5053133;28;47114;-68
2022/02/04 04:20:43;;;;;;;;;11.25;10.50;;;;;8.87;84.97;101406.75;5053714;28;45494;-68
2022/02/04 04:23:09;;;;;;;;;22.25;17.25;;;;;8.88;84.61;101398.00;5054458;28;45468;-68
2022/02/04 04:25:35;;;;;;;;;12.00;10.25;;;;;8.90;84.69;101404.06;5056187;28;45517;-68
2022/02/04 04:28:00;;;;;;;;;13.50;10.00;;;;;8.92;86.02;101401.38;5055111;28;45406;-68
2022/02/04 04:30:26;;;;;;;;;14.75;13.00;;;;;8.94;84.75;101399.59;5053598;28;45501;-68
2022/02/04 04:32:53;;;;;;;;;15.75;13.00;;;;;8.95;84.85;101398.69;5050686;28;45530;-68
2022/02/04 04:35:20;;;;;;;;;12.75;11.50;;;;;8.97;84.55;101402.13;5053760;28;45494;-68
2022/02/04 04:38:35;;;;;;;;;13.00;11.75;;;;;8.97;85.18;101403.00;5054374;28;46207;-68
2022/02/04 05:29:28;;;;;;;;;28.00;17.50;;;;;8.73;86.69;101378.28;5042926;28;45400;-68
2022/02/04 05:31:54;;;;;;;;;19.75;17.25;;;;;8.73;86.66;101373.03;5052120;28;62322;-68
2022/02/04 05:34:20;;;;;;;;;21.25;16.25;;;;;8.74;86.83;101377.38;5055292;28;45483;-68
2022/02/04 05:36:49;;;;;;;;;16.50;14.50;;;;;8.77;86.69;101376.41;5053583;28;45514;-68
2022/02/04 05:39:21;;;;;;;;;25.00;16.00;;;;;8.78;86.82;101373.78;5053355;28;45579;-68
2022/02/04 05:41:49;;;;;;;;;24.50;16.00;;;;;8.76;86.75;101364.22;5052826;28;46712;-68
2022/02/04 05:44:15;;;;;;;;;23.50;16.50;;;;;8.78;86.66;101373.78;5045658;28;46129;-68
2022/02/04 05:46:55;;;;;;;;;19.00;17.25;;;;;8.81;87.05;101376.31;5053520;28;45488;-68
2022/02/04 05:49:23;;;;;;;;;22.75;14.25;;;;;8.78;86.70;101375.53;5054211;28;45415;-68
2022/02/04 05:57:05;;;;;;;;;23.00;16.00;;;;;8.77;86.88;101363.31;5053179;28;45391;-68
2022/02/04 06:02:49;;;;;;;;;21.25;17.25;;;;;8.82;86.89;101364.06;5038912;28;47175;-68
2022/02/04 06:05:30;;;;;;;;;20.50;14.25;;;;;8.82;86.96;101367.56;5035941;28;46047;-68
2022/02/04 06:23:16;;;;;;;;;24.25;20.50;;;;;8.91;86.58;101361.22;5032546;28;45911;-69
2022/02/04 06:25:43;;;;;;;;;20.75;16.00;;;;;8.93;86.24;101366.41;5033670;28;45547;-68
2022/02/04 06:28:08;;;;;;;;;20.50;16.25;;;;;8.92;86.29;101367.31;5036966;28;45479;-68
2022/02/04 06:30:34;;;;;;;;;23.50;16.50;;;;;8.89;87.86;101368.25;5019771;28;45586;-69
2022/02/04 06:33:00;;;;;;;;;26.75;19.00;;;;;8.89;87.15;101360.41;5044715;28;46722;-68
2022/02/04 06:35:28;;;;;;;;;18.00;16.75;;;;;8.90;86.80;101359.50;5050467;28;45757;-69
2022/02/04 06:37:53;;;;;;;;;22.25;15.50;;;;;8.91;86.78;101361.22;5052662;28;45546;-68
2022/02/04 06:40:19;;;;;;;;;26.25;21.50;;;;;8.89;86.57;101353.41;5052615;28;45715;-68
2022/02/04 06:42:44;;;;;;;;;18.25;16.00;;;;;8.91;86.63;101347.25;5051940;28;48996;-68
2022/02/04 06:45:09;;;;;;;;;25.00;14.75;;;;;8.89;89.19;101357.78;5051877;28;45452;-68
2022/02/04 06:47:35;;;;;;;;;26.75;19.75;;;;;8.87;87.45;101349.06;5056107;28;45450;-69
2022/02/04 06:50:01;;;;;;;;;18.25;16.25;;;;;8.89;87.92;101348.16;5052915;28;45396;-68
2022/02/04 06:52:26;;;;;;;;;21.50;17.75;;;;;8.92;87.35;101346.34;5055401;28;46528;-69
2022/02/04 06:54:52;;;;;;;;;20.00;18.25;;;;;8.80;87.58;101337.91;5055414;28;45408;-69
2022/02/04 06:57:17;;;;;;;;;18.25;16.75;;;;;8.85;87.74;101340.41;5052122;28;45451;-68
2022/02/04 06:59:45;;;;;;;;;20.00;15.25;;;;;8.85;87.27;101348.28;5050930;28;45396;-68
2022/02/04 07:02:10;;;;;;;;;30.25;17.75;;;;;8.87;89.55;101349.97;5049096;28;45459;-69
2022/02/04 07:04:36;;;;;;;;;27.25;20.25;;;;;8.87;87.89;101338.59;5057632;28;45609;-68
2022/02/04 07:07:02;;;;;;;;;17.00;15.75;;;;;8.81;87.78;101325.66;5053707;28;45510;-68
2022/02/04 07:12:21;;;;;;;;;21.50;19.75;;;;;8.92;87.54;101349.81;5052277;28;45602;-69
2022/02/04 07:17:35;;;;;;;;;17.50;11.00;;;;;8.84;88.32;101352.66;5051637;28;45387;-68
2022/02/04 07:20:01;;;;;;;;;14.75;14.50;;;;;8.81;88.56;101347.47;5038060;28;45705;-68
2022/02/04 07:22:31;;;;;;;;;15.50;15.50;;;;;8.78;88.16;101347.56;5051755;28;46416;-67
2022/02/04 07:25:00;;;;;;;;;16.50;12.75;;;;;8.80;88.53;101347.53;5056725;28;45467;-68
2022/02/04 07:27:30;;;;;;;;;23.00;18.50;;;;;8.76;88.94;101335.41;5053957;28;45431;-69
2022/02/04 07:29:56;;;;;;;;;14.75;12.00;;;;;8.78;89.62;101344.09;5055724;28;45506;-68
2022/02/04 07:32:56;;;;;;;;;20.75;17.75;;;;;8.75;89.59;101338.91;5058183;28;45394;-68
2022/02/04 07:43:16;;;;;;;;;24.25;15.75;;;;;8.78;89.12;101326.59;5043545;28;45524;-68
2022/02/04 07:45:42;;;;;;;;;15.00;13.00;;;;;8.87;88.96;101336.84;5056530;28;45383;-68
2022/02/04 07:48:07;;;;;;;;;14.50;11.50;;;;;8.86;88.70;101324.63;5050943;28;45733;-68
2022/02/04 07:50:33;;;;;;;;;21.00;15.50;;;;;8.84;89.07;101322.97;5055340;28;45707;-69
2022/02/04 07:52:58;;;;;;;;;18.25;15.00;;;;;8.86;89.17;101326.41;5051590;27;46949;-68
2022/02/04 07:55:25;;;;;;;;;14.25;12.75;;;;;8.86;88.93;101324.63;5058700;28;45449;-68
2022/02/04 07:57:50;;;;;;;;;17.25;13.00;;;;;8.91;89.18;101321.88;5054204;28;45390;-68
2022/02/04 08:00:17;;;;;;;;;21.25;16.00;;;;;8.90;88.81;101320.19;5069022;27;45620;-68
2022/02/04 08:02:45;;;;;;;;;16.25;12.25;;;;;8.85;88.88;101325.53;5051667;28;46220;-68
2022/02/04 08:05:14;;;;;;;;;17.25;15.75;;;;;8.83;89.16;101324.72;5046493;28;45412;-68
2022/02/04 08:07:51;;;;;;;;;19.00;17.50;;;;;8.83;90.49;101314.25;5055563;28;45321;-68
2022/02/04 08:10:28;;;;;;;;;18.00;16.50;;;;;8.91;90.02;101315.78;5072316;28;45590;-68
2022/02/04 08:15:50;;;;;;;;;16.00;15.00;;;;;8.95;89.24;101320.91;5053494;28;45996;-68
2022/02/04 08:24:07;;;;;;;;;22.00;17.25;;;;;9.00;88.93;101321.66;5047083;28;45735;-68
2022/02/04 08:32:03;;;;;;;;;15.50;12.75;;;;;9.08;88.84;101326.66;5055344;28;45336;-68
2022/02/04 08:48:00;;;;;;;;;16.75;13.50;;;;;9.21;88.39;101329.84;5052962;28;45907;-68
2022/02/04 08:55:43;;;;;;;;;20.25;15.00;;;;;9.25;87.99;101321.84;5035853;28;45502;-68
2022/02/04 09:03:50;;;;;;;;;13.25;13.25;;;;;9.30;88.12;101321.72;5052382;28;45451;-68
2022/02/04 09:06:21;;;;;;;;;15.50;14.75;;;;;9.34;87.80;101324.22;5047045;28;46315;-68
2022/02/04 09:08:59;;;;;;;;;16.75;13.00;;;;;9.35;87.87;101315.44;5042603;28;45995;-68
2022/02/04 09:19:23;;;;;;;;;16.50;14.25;;;;;9.50;87.23;101308.00;5055212;28;45863;-68
2022/02/04 09:22:06;;;;;;;;;17.00;12.00;;;;;9.58;87.24;101325.25;5039051;28;45476;-68
2022/02/04 09:24:31;;;;;;;;;8.00;8.00;;;;;9.57;86.10;101314.81;5052033;28;45580;-68
2022/02/04 09:26:56;;;;;;;;;17.50;11.25;;;;;9.57;86.70;101317.44;5052232;28;46205;-68
2022/02/04 09:29:22;;;;;;;;;12.75;11.75;;;;;9.58;86.62;101311.28;5051577;28;45608;-68
2022/02/04 09:31:48;;;;;;;;;14.25;11.75;;;;;9.63;86.78;101306.75;5054191;28;45534;-68
2022/02/04 09:34:13;;;;;;;;;15.50;12.25;;;;;9.66;86.55;101310.16;5053507;28;45659;-68
2022/02/04 09:36:39;;;;;;;;;13.25;11.00;;;;;9.80;86.74;101312.34;5049530;28;47346;-68
2022/02/04 09:39:06;;;;;;;;;17.00;11.75;;;;;9.92;86.50;101311.13;5046318;28;45416;-68
2022/02/04 09:41:33;;;;;;;;;16.50;10.25;;;;;10.03;85.82;101314.28;5051184;28;45462;-68
2022/02/04 09:43:59;;;;;;;;;10.50;8.00;;;;;10.10;85.62;101299.16;5051660;28;45406;-68
2022/02/04 09:46:24;;;;;;;;;17.50;13.75;;;;;10.12;85.73;101295.56;5038632;28;45728;-68
2022/02/04 09:48:55;;;;;;;;;13.75;12.50;;;;;10.20;85.74;101304.06;5045158;28;45467;-68
2022/02/04 09:51:28;;;;;;;;;16.25;11.00;;;;;10.21;84.92;101299.69;5039052;28;45372;-69
2022/02/04 10:13:19;;;;;;;;;14.00;11.75;;;;;10.20;85.43;101301.44;5047278;28;47926;-68
2022/02/04 10:20:53;;;;;;;;;11.75;9.75;;;;;10.17;85.58;101304.16;5051369;28;45233;-68
2022/02/04 10:23:18;;;;;;;;;13.00;11.25;;;;;10.17;84.97;101291.03;5049597;28;45330;-68
2022/02/04 10:25:44;;;;;;;;;12.25;9.00;;;;;10.22;85.03;101284.78;5054255;28;45326;-68
2022/02/04 10:28:25;;;;;;;;;6.25;6.25;;;;;10.28;85.01;101277.56;5052767;28;46459;-68
2022/02/04 10:31:22;;;;;;;;;14.25;11.50;;;;;10.45;85.15;101266.53;5051224;28;45746;-68
2022/02/04 10:34:12;;;;;;;;;11.50;8.75;;;;;10.65;84.61;101277.22;5049640;28;46111;-68
2022/02/04 10:36:58;;;;;;;;;8.00;7.50;;;;;10.74;84.47;101269.91;5050789;28;45534;-68
2022/02/04 10:42:36;;;;;;;;;13.00;9.00;;;;;10.87;83.51;101265.94;5051070;28;45737;-68
2022/02/04 10:45:21;;;;;;;;;19.50;10.00;;;;;10.85;82.83;101263.34;5050002;28;45399;-68
2022/02/04 10:58:33;;;;;;;;;14.50;8.75;;;;;10.85;83.03;101267.75;5052014;28;45449;-68
2022/02/04 11:03:27;;;;;;;;;8.50;7.75;;;;;10.84;82.50;101269.53;5053874;28;45397;-69
2022/02/04 11:06:09;;;;;;;;;12.00;7.25;;;;;10.80;82.43;101265.28;5053689;28;45379;-68
2022/02/04 11:30:57;;;;;;;;;9.75;7.25;;;;;10.99;82.75;101254.97;5055686;28;45399;-68
2022/02/04 11:43:43;;;;;;;;;28.75;18.25;;;;;11.34;82.17;101253.69;4880671;29;45449;-68
2022/02/04 11:56:58;;;;;;;;;5.00;5.00;;;;;11.26;81.33;101210.16;4869975;29;45452;-69
2022/02/04 11:59:34;;;;;;;;;6.00;4.50;;;;;11.32;81.25;101209.91;4881078;29;45545;-68
2022/02/04 12:01:59;;;;;;;;;4.50;4.00;;;;;11.40;80.94;101190.28;4880516;29;45521;-69
2022/02/04 12:04:25;;;;;;;;;3.50;1.25;;;;;11.50;80.69;101181.09;4897015;28;45529;-68
2022/02/04 12:06:50;;;;;;;;;3.25;3.00;;;;;11.64;79.84;101183.19;4934724;28;45552;-68
2022/02/04 12:09:34;;;;;;;;;4.00;3.00;;;;;11.79;79.55;101168.53;4935799;28;45426;-69
2022/02/04 12:12:00;;;;;;;;;6.25;4.25;;;;;11.85;79.29;101164.81;4966205;28;45926;-69
2022/02/04 12:14:29;;;;;;;;;5.50;3.75;;;;;11.93;78.38;101153.06;5034325;28;45498;-68
2022/02/04 12:17:03;;;;;;;;;2.75;2.75;;;;;12.25;78.93;101151.69;5050880;28;46280;-68
2022/02/04 12:19:36;;;;;;;;;3.00;2.25;;;;;12.50;77.90;101145.34;5053393;28;46006;-68
2022/02/04 12:22:02;;;;;;;;;6.25;4.00;;;;;12.80;77.50;101151.88;5053293;28;45429;-68
2022/02/04 12:24:32;;;;;;;;;7.00;4.00;;;;;13.06;76.24;101150.69;5054840;28;45715;-68
2022/02/04 12:27:30;;;;;;;;;2.00;2.00;;;;;13.29;75.45;101141.69;5053975;28;46190;-69
2022/02/04 12:29:57;;;;;;;;;4.00;3.00;;;;;13.42;74.75;101135.84;5056144;28;45817;-68
2022/02/04 12:32:23;;;;;;;;;3.75;2.75;;;;;13.58;74.82;101129.75;5050326;28;45779;-68
2022/02/04 12:34:49;;;;;;;;;4.50;3.00;;;;;13.70;74.01;101127.41;5049683;28;45425;-68
2022/02/04 12:37:16;;;;;;;;;3.00;3.00;;;;;13.70;72.18;101112.44;5050806;28;46230;-68
2022/02/04 12:39:42;;;;;;;;;5.75;3.00;;;;;13.53;72.04;101097.41;5051622;28;45519;-68
2022/02/04 12:42:10;;;;;;;;;2.25;2.25;;;;;13.43;72.06;101093.53;5049493;28;45833;-68
2022/02/04 12:44:36;;;;;;;;;3.75;2.00;;;;;13.45;72.45;101104.84;5049975;28;45593;-68
2022/02/04 12:47:10;;;;;;;;;3.00;2.00;;;;;13.42;71.88;101105.03;5034153;28;45556;-67
2022/02/04 12:49:52;;;;;;;;;2.50;1.25;;;;;13.36;71.52;101073.63;5048599;28;45825;-68
2022/02/04 12:52:30;;;;;;;;;2.25;2.00;;;;;13.57;72.03;101074.34;5052088;28;45333;-68
2022/02/04 12:55:08;;;;;;;;;1.00;1.00;;;;;13.70;71.30;101072.81;5049603;28;48489;-68
2022/02/04 12:57:42;;;;;;;;;2.00;1.00;;;;;13.68;71.36;101065.91;5050760;28;45422;-68
2022/02/04 13:03:04;;;;;;;;;2.00;0.75;;;;;13.91;70.26;101068.22;5050765;28;45777;-68
2022/02/04 13:08:23;;;;;;;;;3.00;2.00;;;;;13.82;69.17;101060.75;5035497;28;45431;-68
2022/02/04 13:11:16;;;;;;;;;3.00;3.00;;;;;13.82;70.27;101066.88;5050998;28;45929;-68
2022/02/04 13:13:48;;;;;;;;;1.75;1.75;;;;;13.95;69.49;101067.13;5049423;28;45465;-68
2022/02/04 13:16:23;;;;;;;;;2.00;2.00;;;;;14.12;69.61;101065.41;5054505;28;45463;-68
2022/02/04 13:18:48;;;;;;;;;2.00;1.00;;;;;14.13;68.57;101059.16;5053732;28;45524;-68
2022/02/04 13:21:15;;;;;;;;;2.75;1.00;;;;;14.16;68.54;101046.66;5053686;28;45403;-68
2022/02/04 13:23:41;;;;;;;;;3.00;3.00;;;;;14.14;67.83;101059.06;5053674;28;45542;-68
2022/02/04 13:26:06;;;;;;;;;2.00;2.00;;;;;14.09;68.71;101048.78;5050080;28;45494;-68
2022/02/04 13:28:34;;;;;;;;;2.25;2.25;;;;;14.14;68.04;101056.44;5056279;27;47394;-68
2022/02/04 13:31:05;;;;;;;;;1.00;1.00;;;;;14.06;68.41;101033.06;5054505;28;45522;-68
2022/02/04 13:33:41;;;;;;;;;81.75;64.75;;;;;14.21;67.64;101034.06;5054178;28;46534;-68
2022/02/04 13:36:27;;;;;;;;;4.25;2.00;;;;;14.29;68.14;101039.75;5050782;28;45447;-67
2022/02/04 13:41:50;;;;;;;;;1.00;1.00;;;;;14.38;67.36;101046.34;5050455;28;45839;-69
2022/02/04 13:47:01;;;;;;;;;2.75;1.25;;;;;14.24;66.54;101039.16;5056223;28;45564;-69
2022/02/04 13:52:03;;;;;;;;;1.00;1.00;;;;;14.15;66.62;101049.34;5058012;28;45349;-69
2022/02/04 13:57:26;;;;;;;;;3.00;1.25;;;;;13.98;66.68;101052.88;5058018;28;45505;-69
2022/02/04 14:00:04;;;;;;;;;1.00;1.00;;;;;13.88;66.49;101065.72;5057294;28;45398;-69
2022/02/04 14:02:38;;;;;;;;;3.25;0.25;;;;;13.85;66.73;101063.25;5053455;28;45714;-69
2022/02/04 14:05:04;;;;;;;;;1.25;1.00;;;;;13.85;66.54;101065.91;5052193;28;45463;-69
2022/02/04 14:07:42;;;;;;;;;1.00;1.00;;;;;13.78;66.12;101069.75;5059754;27;45580;-69
2022/02/04 14:10:40;;;;;;;;;5.00;4.75;;;;;13.71;67.09;101073.66;5058605;28;47301;-69
2022/02/04 14:13:10;;;;;;;;;1.50;1.00;;;;;13.67;66.41;101072.94;5057821;28;45768;-69
2022/02/04 14:15:42;;;;;;;;;3.50;1.75;;;;;13.58;67.54;101071.66;5062146;28;45425;-69
2022/02/04 14:18:09;;;;;;;;;1.00;1.00;;;;;13.56;67.64;101067.34;5064443;27;45474;-69
2022/02/04 14:20:37;;;;;;;;;1.50;1.50;;;;;13.51;66.97;101070.22;5057035;28;46369;-69
2022/02/04 14:23:07;;;;;;;;;1.75;1.00;;;;;13.47;67.66;101076.59;5053071;28;45789;-69
2022/02/04 14:25:51;;;;;;;;;2.00;2.00;;;;;13.45;67.76;101077.59;5049862;28;45819;-69
2022/02/04 14:28:22;;;;;;;;;1.00;1.00;;;;;13.39;67.62;101086.69;5053073;28;45473;-69
2022/02/04 14:30:51;;;;;;;;;0.75;0.75;;;;;13.32;68.33;101078.22;5052947;28;47472;-69
2022/02/04 14:34:05;;;;;;;;;2.00;2.00;;;;;13.34;68.01;101090.47;5052710;28;45563;-70
2022/02/04 14:36:14;;;;;;;;;2.00;1.00;;;;;13.28;68.00;101091.63;5052569;28;45367;-69
2022/02/04 14:52:26;;;;;;;;;0.00;0.00;;;;;12.97;69.19;101108.88;5056117;28;45745;-68
2022/02/04 15:05:47;;;;;;;;;1.75;0.00;;;;;12.52;72.76;101146.97;5055809;28;45427;-67
2022/02/04 15:08:17;;;;;;;;;1.00;1.00;;;;;12.46;73.66;101159.56;5040051;28;45533;-67
2022/02/04 15:10:46;;;;;;;;;1.00;0.75;;;;;12.35;74.24;101167.97;5056864;28;45449;-67
2022/02/04 15:13:14;;;;;;;;;6.00;3.50;;;;;12.27;77.63;101184.13;5057083;28;47022;-67
2022/02/04 15:15:40;;;;;;;;;4.50;4.00;;;;;12.17;75.52;101206.50;5055688;28;45413;-67
2022/02/04 15:18:06;;;;;;;;;2.75;2.75;;;;;12.06;75.44;101208.72;5055945;28;45491;-67
2022/02/04 15:20:31;;;;;;;;;1.00;1.00;;;;;11.86;81.28;101225.34;5055865;28;45495;-68
2022/02/04 15:22:57;;;;;;;;;3.25;3.25;;;;;11.69;85.34;101220.72;5050998;28;46587;-67
2022/02/04 15:25:23;;;;;;;;;3.00;2.00;;;;;11.54;85.63;101237.13;5057048;28;45478;-67
2022/02/04 15:28:02;;;;;;;;;0.00;0.00;;;;;11.47;85.78;101248.78;5052913;28;45549;-67
2022/02/04 15:30:33;;;;;;;;;0.25;0.25;;;;;11.36;86.16;101254.47;5054128;28;45506;-67
2022/02/04 15:32:58;;;;;;;;;1.00;1.00;;;;;11.24;83.54;101261.06;5055140;28;45516;-67
2022/02/04 15:35:24;;;;;;;;;8.50;7.25;;;;;11.18;80.13;101265.69;5053105;28;45544;-67
2022/02/04 15:37:50;;;;;;;;;15.25;14.00;;;;;11.14;79.68;101269.34;5053241;28;45530;-66
2022/02/04 15:40:15;;;;;;;;;3.75;3.00;;;;;11.12;79.39;101269.41;5051918;28;46071;-67
2022/02/04 15:42:45;;;;;;;;;17.00;15.00;;;;;11.08;78.69;101286.22;5051881;28;46439;-66
2022/02/04 15:46:06;;;;;;;;;4.75;4.50;;;;;10.99;78.32;101302.31;5053319;28;45746;-67
2022/02/04 15:59:23;;;;;;;;;0.00;0.00;;;;;10.43;79.66;101313.84;5055125;28;45289;-67
2022/02/04 16:01:27;;;;;;;;;0.00;0.00;;;;;10.41;79.35;101322.72;5051232;28;45906;-67
2022/02/04 16:04:03;;;;;;;;;0.00;0.00;;;;;10.37;79.04;101326.34;5054576;28;47218;-67
2022/02/04 16:06:29;;;;;;;;;0.00;0.00;;;;;10.31;78.74;101339.69;5050984;28;45384;-67
2022/02/04 16:08:56;;;;;;;;;0.00;0.00;;;;;10.29;78.37;101341.50;5053189;28;45535;-67
2022/02/04 16:14:50;;;;;;;;;0.00;0.00;;;;;10.19;77.72;101352.28;5038907;28;45407;-67
2022/02/04 16:17:16;;;;;;;;;0.00;0.00;;;;;10.14;77.53;101369.09;5052325;28;45366;-67
2022/02/04 16:19:45;;;;;;;;;1.00;1.00;;;;;10.04;76.94;101378.16;5052179;28;45224;-67
2022/02/04 16:22:18;;;;;;;;;1.00;1.00;;;;;9.89;76.95;101389.97;5055761;28;45636;-66
2022/02/04 16:29:44;;;;;;;;;0.00;0.00;;;;;9.55;77.05;101388.34;5053260;28;45552;-66
2022/02/04 16:32:10;;;;;;;;;0.00;0.00;;;;;9.51;77.34;101393.72;5055869;28;45474;-66
2022/02/04 16:34:35;;;;;;;;;0.00;0.00;;;;;9.51;77.53;101409.44;5055995;28;45347;-67
2022/02/04 16:37:15;;;;;;;;;1.25;1.00;;;;;9.51;76.90;101405.06;5054225;28;45531;-66
2022/02/04 16:39:41;;;;;;;;;0.25;0.25;;;;;9.51;76.87;101410.31;5053104;28;45443;-66
2022/02/04 16:42:14;;;;;;;;;0.75;0.00;;;;;9.41;76.29;101420.19;5056529;28;45316;-66
2022/02/04 16:44:39;;;;;;;;;0.75;0.75;;;;;9.33;76.52;101423.91;5042984;28;45581;-66
2022/02/04 16:47:05;;;;;;;;;4.00;1.00;;;;;9.21;76.36;101427.72;5054437;28;45629;-66
2022/02/04 16:49:30;;;;;;;;;1.75;1.00;;;;;9.10;76.46;101432.38;5056606;28;45483;-66
2022/02/04 16:51:57;;;;;;;;;2.25;2.00;;;;;9.03;76.50;101436.06;5051153;28;45867;-66
2022/02/04 16:54:24;;;;;;;;;1.00;1.00;;;;;8.93;76.32;101445.94;5052987;28;45664;-66
2022/02/04 16:56:51;;;;;;;;;0.00;0.00;;;;;8.87;76.09;101451.28;5051127;28;45500;-65
2022/02/04 16:59:17;;;;;;;;;31.75;27.00;;;;;8.79;75.86;101443.63;5044656;28;45538;-65
2022/02/04 17:01:43;;;;;;;;;0.00;0.00;;;;;8.72;76.03;101456.91;5055333;28;45392;-68
2022/02/04 17:04:08;;;;;;;;;0.75;0.00;;;;;8.65;76.02;101468.44;5051174;28;46563;-67
2022/02/04 17:06:38;;;;;;;;;4.25;1.00;;;;;8.59;76.29;101472.06;5048428;28;45403;-67
2022/02/04 17:11:45;;;;;;;;;0.25;0.25;;;;;8.43;75.76;101481.16;5046199;28;45526;-67
2022/02/04 17:14:11;;;;;;;;;3.75;1.00;;;;;8.36;76.06;101483.94;5047329;28;47178;-67
2022/02/04 17:16:42;;;;;;;;;0.75;0.00;;;;;8.30;76.34;101488.38;5049816;28;45860;-67
2022/02/04 17:19:11;;;;;;;;;2.00;2.00;;;;;8.16;76.14;101474.75;5050509;28;45444;-67
2022/02/04 17:21:37;;;;;;;;;3.00;1.00;;;;;8.23;76.23;101512.97;5049276;28;45632;-67
2022/02/04 17:24:03;;;;;;;;;4.25;1.00;;;;;8.20;76.16;101518.31;5044675;28;46410;-67
2022/02/04 17:26:29;;;;;;;;;0.50;0.50;;;;;8.16;75.80;101520.13;5036756;28;45447;-67
2022/02/04 17:28:54;;;;;;;;;3.25;1.00;;;;;8.16;75.76;101532.34;5050789;28;45576;-67
2022/02/04 17:31:20;;;;;;;;;0.00;0.00;;;;;8.10;75.70;101535.94;5039333;28;45445;-67
2022/02/04 17:33:46;;;;;;;;;2.00;0.25;;;;;8.09;75.49;101542.94;5039500;28;46372;-67
2022/02/04 17:36:12;;;;;;;;;0.00;0.00;;;;;8.02;75.14;101543.06;5044996;28;45741;-67
2022/02/04 17:38:38;;;;;;;;;0.25;0.25;;;;;8.05;75.67;101556.13;5039730;28;45427;-67
2022/02/04 17:41:03;;;;;;;;;0.00;0.00;;;;;8.00;75.38;101555.34;5049609;28;45363;-67
2022/02/04 17:43:29;;;;;;;;;0.50;0.00;;;;;7.99;75.55;101564.97;5056977;28;45558;-66
2022/02/04 17:45:56;;;;;;;;;1.00;1.00;;;;;7.93;75.61;101559.81;5052235;28;45684;-67
2022/02/04 17:48:38;;;;;;;;;2.00;0.00;;;;;7.92;75.33;101565.09;5053273;28;45369;-67
2022/02/04 17:53:43;;;;;;;;;1.50;1.00;;;;;7.81;75.07;101571.38;5049371;28;46061;-66
2022/02/04 17:56:24;;;;;;;;;2.00;2.00;;;;;7.80;75.26;101580.13;5034516;28;45876;-67
2022/02/04 17:59:05;;;;;;;;;0.25;0.25;;;;;7.72;75.03;101579.38;5052497;28;45990;-67
2022/02/04 18:09:59;;;;;;;;;302.75;240.00;;;;;7.68;75.30;101616.13;4992744;28;45506;-67